Time;durP1;ratioP1;P1;durP2;ratioP2;P2;SDS_P1;SDS_P2;PMS_P1;PMS_P2;Temp;Humidity;BMP_temperature;BMP_pressure;BME280_temperature;BME280_humidity;BME280_pressure;Samples;Min_cycle;Max_cycle;Signal;HPM_P1;HPM_P2
2022/08/13 00:01:04;;;;;;;24.65;8.88;;;;;;;;;;4213864;28;20031;-63
2022/08/13 00:03:10;;;;;;;23.17;10.02;;;;;;;;;;4216069;28;20032;-67
2022/08/13 00:05:14;;;;;;;24.40;10.27;;;;;;;;;;4215868;28;20020;-64
2022/08/13 00:07:14;;;;;;;22.13;9.85;;;;;;;;;;4215517;28;20035;-63
2022/08/13 00:09:18;;;;;;;20.73;9.95;;;;;;;;;;4211559;28;20070;-65
2022/08/13 00:13:46;;;;;;;26.17;10.45;;;;;;;;;;4216149;28;20016;-66
2022/08/13 00:15:47;;;;;;;22.95;10.27;;;;;;;;;;4212657;28;20077;-65
2022/08/13 00:17:51;;;;;;;17.42;9.25;;;;;;;;;;4215438;28;20487;-66
2022/08/13 00:19:53;;;;;;;24.87;10.37;;;;;;;;;;4213141;28;20433;-66
2022/08/13 00:21:54;;;;;;;28.17;10.90;;;;;;;;;;4214456;28;20682;-64
2022/08/13 00:23:58;;;;;;;22.50;10.75;;;;;;;;;;4211712;28;20024;-63
2022/08/13 00:25:59;;;;;;;26.35;10.23;;;;;;;;;;4207439;28;20081;-65
2022/08/13 00:28:00;;;;;;;23.42;10.52;;;;;;;;;;4216085;28;20035;-64
2022/08/13 00:30:05;;;;;;;21.48;10.40;;;;;;;;;;4214373;28;20044;-64
2022/08/13 00:32:06;;;;;;;26.02;10.63;;;;;;;;;;4212187;28;20036;-64
2022/08/13 00:34:07;;;;;;;28.02;10.82;;;;;;;;;;4210197;28;20064;-63
2022/08/13 00:36:08;;;;;;;25.65;10.88;;;;;;;;;;4215530;28;20032;-62
2022/08/13 00:38:13;;;;;;;20.35;10.70;;;;;;;;;;4214484;28;20032;-63
2022/08/13 00:40:15;;;;;;;30.45;11.25;;;;;;;;;;4214965;28;20086;-62
2022/08/13 00:42:20;;;;;;;20.88;10.48;;;;;;;;;;4215794;28;20495;-63
2022/08/13 00:44:22;;;;;;;25.65;10.45;;;;;;;;;;4214257;28;20086;-63
2022/08/13 00:46:24;;;;;;;21.45;10.60;;;;;;;;;;4214260;28;20372;-63
2022/08/13 00:48:46;;;;;;;21.85;11.18;;;;;;;;;;4214355;28;20483;-63
2022/08/13 00:50:50;;;;;;;23.52;10.88;;;;;;;;;;4200896;28;20102;-63
2022/08/13 00:52:51;;;;;;;22.00;11.02;;;;;;;;;;4212509;28;20438;-62
2022/08/13 00:54:52;;;;;;;31.33;12.05;;;;;;;;;;4215445;28;20123;-62
2022/08/13 00:56:57;;;;;;;24.25;13.38;;;;;;;;;;4213861;28;20052;-64
2022/08/13 00:59:03;;;;;;;24.17;11.73;;;;;;;;;;4214691;28;20073;-63
2022/08/13 01:01:05;;;;;;;23.48;12.70;;;;;;;;;;4214839;28;20044;-61
2022/08/13 01:03:07;;;;;;;24.65;12.93;;;;;;;;;;4214595;28;20027;-63
2022/08/13 01:05:09;;;;;;;26.33;12.98;;;;;;;;;;4214874;28;20032;-63
2022/08/13 01:07:19;;;;;;;18.88;12.57;;;;;;;;;;4212474;28;20433;-62
2022/08/13 01:09:20;;;;;;;21.02;12.77;;;;;;;;;;4204074;28;20044;-63
2022/08/13 01:11:23;;;;;;;22.27;13.10;;;;;;;;;;4214464;28;20424;-63
2022/08/13 01:13:28;;;;;;;17.77;12.30;;;;;;;;;;4215657;28;20383;-65
2022/08/13 01:15:29;;;;;;;25.50;13.65;;;;;;;;;;4214871;28;20093;-64
2022/08/13 01:17:35;;;;;;;21.83;12.82;;;;;;;;;;4213786;28;20093;-64
2022/08/13 01:19:36;;;;;;;21.27;13.38;;;;;;;;;;4215017;28;20093;-65
2022/08/13 01:21:39;;;;;;;23.60;13.13;;;;;;;;;;4213206;28;20028;-64
2022/08/13 01:23:44;;;;;;;24.02;14.07;;;;;;;;;;4212645;28;21203;-73
2022/08/13 01:25:45;;;;;;;20.88;13.00;;;;;;;;;;4214825;28;20429;-71
2022/08/13 01:27:46;;;;;;;20.05;12.82;;;;;;;;;;4214924;28;20024;-63
2022/08/13 01:29:53;;;;;;;23.75;13.43;;;;;;;;;;4214651;28;20070;-62
2022/08/13 01:31:54;;;;;;;19.67;12.73;;;;;;;;;;4213780;28;20024;-63
2022/08/13 01:34:07;;;;;;;36.03;13.23;;;;;;;;;;4214651;28;20035;-61
2022/08/13 01:36:08;;;;;;;26.33;13.00;;;;;;;;;;4208950;28;20036;-60
2022/08/13 01:38:10;;;;;;;29.35;13.38;;;;;;;;;;4214518;28;20058;-61
2022/08/13 01:40:11;;;;;;;22.23;12.75;;;;;;;;;;4213550;28;20066;-61
2022/08/13 01:42:20;;;;;;;22.55;13.40;;;;;;;;;;4215172;28;20484;-61
2022/08/13 01:44:24;;;;;;;32.00;12.70;;;;;;;;;;4214570;28;20113;-61
2022/08/13 01:46:25;;;;;;;31.48;12.20;;;;;;;;;;4215186;28;20552;-62
2022/08/13 01:50:54;;;;;;;24.67;12.60;;;;;;;;;;4187377;28;20036;-60
2022/08/13 01:53:01;;;;;;;19.45;11.48;;;;;;;;;;4202197;28;20514;-62
2022/08/13 01:55:04;;;;;;;22.40;12.45;;;;;;;;;;4214982;28;20105;-60
2022/08/13 01:57:08;;;;;;;22.13;10.85;;;;;;;;;;4214626;28;20032;-60
2022/08/13 01:59:09;;;;;;;22.58;11.60;;;;;;;;;;4213801;28;20105;-59
2022/08/13 02:01:10;;;;;;;18.75;11.40;;;;;;;;;;4213476;28;20429;-59
2022/08/13 02:03:12;;;;;;;16.73;10.68;;;;;;;;;;4214534;28;20095;-60
2022/08/13 02:05:13;;;;;;;15.80;11.15;;;;;;;;;;4206147;28;20039;-59
2022/08/13 02:07:14;;;;;;;20.65;11.13;;;;;;;;;;4215482;28;20032;-60
2022/08/13 02:09:15;;;;;;;22.30;10.60;;;;;;;;;;4214806;28;20043;-60
2022/08/13 02:11:16;;;;;;;17.20;10.65;;;;;;;;;;4214083;28;20032;-60
2022/08/13 02:13:19;;;;;;;12.73;9.23;;;;;;;;;;4214339;28;20475;-60
2022/08/13 02:15:20;;;;;;;14.18;11.07;;;;;;;;;;4214221;28;20085;-60
2022/08/13 02:17:27;;;;;;;17.65;10.50;;;;;;;;;;4214721;28;20036;-60
2022/08/13 02:19:28;;;;;;;12.93;9.88;;;;;;;;;;4214143;28;20093;-60
2022/08/13 02:21:32;;;;;;;14.05;9.73;;;;;;;;;;4213502;28;20039;-60
2022/08/13 02:23:34;;;;;;;14.40;10.48;;;;;;;;;;4214605;28;20112;-60
2022/08/13 02:25:37;;;;;;;16.13;9.95;;;;;;;;;;4214579;28;20032;-60
2022/08/13 02:27:40;;;;;;;20.40;11.02;;;;;;;;;;4214470;28;20065;-60
2022/08/13 02:29:42;;;;;;;20.77;9.90;;;;;;;;;;4214226;28;20063;-61
2022/08/13 02:31:43;;;;;;;16.35;10.10;;;;;;;;;;4214470;28;20098;-60
2022/08/13 02:33:44;;;;;;;19.80;9.80;;;;;;;;;;4212390;28;20395;-59
2022/08/13 02:35:45;;;;;;;14.35;9.80;;;;;;;;;;4214262;28;20028;-59
2022/08/13 02:37:47;;;;;;;22.15;9.48;;;;;;;;;;4206425;28;20097;-59
2022/08/13 02:39:51;;;;;;;14.73;8.93;;;;;;;;;;4212965;28;20036;-60
2022/08/13 02:41:56;;;;;;;14.90;8.93;;;;;;;;;;4214317;28;20040;-59
2022/08/13 02:43:59;;;;;;;14.13;8.95;;;;;;;;;;4213123;28;20089;-59
2022/08/13 02:46:01;;;;;;;11.27;8.40;;;;;;;;;;4213391;28;20576;-58
2022/08/13 02:48:05;;;;;;;13.73;9.20;;;;;;;;;;4213594;28;20081;-59
2022/08/13 02:50:09;;;;;;;13.43;8.50;;;;;;;;;;4212867;28;20556;-60
2022/08/13 02:52:10;;;;;;;14.65;8.57;;;;;;;;;;4213502;28;20024;-59
2022/08/13 02:54:11;;;;;;;13.43;8.70;;;;;;;;;;4213597;28;20044;-59
2022/08/13 02:56:12;;;;;;;18.75;8.60;;;;;;;;;;4199564;28;20472;-60
2022/08/13 02:58:14;;;;;;;14.13;9.15;;;;;;;;;;4211812;28;20093;-60
2022/08/13 03:00:16;;;;;;;13.18;8.40;;;;;;;;;;4213596;28;20036;-58
2022/08/13 03:02:17;;;;;;;37.13;9.18;;;;;;;;;;4211442;28;20053;-60
2022/08/13 03:04:18;;;;;;;14.18;8.05;;;;;;;;;;4210058;28;20044;-59
2022/08/13 03:06:19;;;;;;;15.80;8.68;;;;;;;;;;4213815;28;20032;-59
2022/08/13 03:08:20;;;;;;;13.70;7.97;;;;;;;;;;4213615;28;20058;-60
2022/08/13 03:10:22;;;;;;;12.93;7.90;;;;;;;;;;4213278;28;20040;-59
2022/08/13 03:12:25;;;;;;;18.08;8.70;;;;;;;;;;4212879;28;20517;-60
2022/08/13 03:14:26;;;;;;;15.57;8.00;;;;;;;;;;4213214;28;20372;-59
2022/08/13 03:16:27;;;;;;;18.00;8.40;;;;;;;;;;4213642;28;20036;-60
2022/08/13 03:18:29;;;;;;;14.25;8.20;;;;;;;;;;4213069;28;20052;-60
2022/08/13 03:20:30;;;;;;;11.98;7.30;;;;;;;;;;4213135;28;20453;-61
2022/08/13 03:22:31;;;;;;;12.73;7.47;;;;;;;;;;4213358;28;20536;-60
2022/08/13 03:24:33;;;;;;;27.98;8.30;;;;;;;;;;4213288;28;20086;-59
2022/08/13 03:26:35;;;;;;;14.73;7.90;;;;;;;;;;4213235;28;20032;-61
2022/08/13 03:28:37;;;;;;;15.25;8.10;;;;;;;;;;4212851;28;20086;-60
2022/08/13 03:30:38;;;;;;;12.00;7.57;;;;;;;;;;4212330;28;20093;-60
2022/08/13 03:32:40;;;;;;;17.33;7.65;;;;;;;;;;4213024;28;20055;-60
2022/08/13 03:34:44;;;;;;;12.93;6.95;;;;;;;;;;4214283;28;20023;-60
2022/08/13 03:36:45;;;;;;;15.30;7.32;;;;;;;;;;4213637;28;20504;-60
2022/08/13 03:38:48;;;;;;;12.90;7.60;;;;;;;;;;4213075;28;20060;-60
2022/08/13 03:41:02;;;;;;;15.45;6.85;;;;;;;;;;4213283;28;20097;-60
2022/08/13 03:43:11;;;;;;;14.10;6.30;;;;;;;;;;4213208;28;20090;-61
2022/08/13 03:45:12;;;;;;;12.18;6.50;;;;;;;;;;4212860;28;20076;-61
2022/08/13 03:47:16;;;;;;;11.68;7.40;;;;;;;;;;4214051;28;20063;-61
2022/08/13 03:49:19;;;;;;;12.55;7.47;;;;;;;;;;4212751;28;20032;-60
2022/08/13 03:51:23;;;;;;;12.30;6.45;;;;;;;;;;4212827;28;20097;-60
2022/08/13 03:53:23;;;;;;;8.85;6.72;;;;;;;;;;4213599;28;20468;-60
2022/08/13 03:55:24;;;;;;;8.90;5.82;;;;;;;;;;4213406;28;20097;-60
2022/08/13 03:57:25;;;;;;;11.00;7.22;;;;;;;;;;4212936;28;20039;-60
2022/08/13 03:59:29;;;;;;;12.43;6.47;;;;;;;;;;4213376;28;20037;-60
2022/08/13 04:01:30;;;;;;;7.82;5.72;;;;;;;;;;4212824;28;20044;-60
2022/08/13 04:03:35;;;;;;;8.38;6.05;;;;;;;;;;4213281;28;20535;-59
2022/08/13 04:05:37;;;;;;;10.80;6.03;;;;;;;;;;4209101;28;20043;-60
2022/08/13 04:07:39;;;;;;;10.10;6.15;;;;;;;;;;4212099;28;20077;-60
2022/08/13 04:09:41;;;;;;;10.25;6.13;;;;;;;;;;4215775;28;20070;-60
2022/08/13 04:11:42;;;;;;;11.77;6.22;;;;;;;;;;4215654;28;20077;-60
2022/08/13 04:13:43;;;;;;;9.70;5.75;;;;;;;;;;4213676;28;20375;-60
2022/08/13 04:15:44;;;;;;;13.07;5.40;;;;;;;;;;4220452;28;20467;-61
2022/08/13 04:17:45;;;;;;;7.60;5.55;;;;;;;;;;4215792;28;20032;-61
2022/08/13 04:19:46;;;;;;;9.65;5.97;;;;;;;;;;4215850;28;20056;-61
2022/08/13 04:21:47;;;;;;;13.00;4.85;;;;;;;;;;4215241;28;20380;-60
2022/08/13 04:23:49;;;;;;;8.48;5.00;;;;;;;;;;4214987;28;20036;-61
2022/08/13 04:25:50;;;;;;;8.70;5.38;;;;;;;;;;4214532;28;20085;-59
2022/08/13 04:27:51;;;;;;;9.25;4.97;;;;;;;;;;4214503;28;20036;-60
2022/08/13 04:29:56;;;;;;;8.90;5.60;;;;;;;;;;4210821;28;20089;-60
2022/08/13 04:32:00;;;;;;;10.40;5.50;;;;;;;;;;4216103;28;20482;-59
2022/08/13 04:34:01;;;;;;;7.05;4.95;;;;;;;;;;4216227;28;20032;-59
2022/08/13 04:36:02;;;;;;;10.95;5.35;;;;;;;;;;4215691;28;20063;-59
2022/08/13 04:38:06;;;;;;;6.60;5.03;;;;;;;;;;4215866;28;20035;-59
2022/08/13 04:40:10;;;;;;;9.13;5.20;;;;;;;;;;4215185;28;20429;-60
2022/08/13 04:42:11;;;;;;;5.90;4.78;;;;;;;;;;4213663;28;20396;-59
2022/08/13 04:44:15;;;;;;;6.80;4.55;;;;;;;;;;4214596;28;20507;-59
2022/08/13 04:46:17;;;;;;;10.40;4.97;;;;;;;;;;4214926;28;20027;-59
2022/08/13 04:48:18;;;;;;;7.32;5.20;;;;;;;;;;4215944;28;20089;-59
2022/08/13 04:50:19;;;;;;;4.70;4.15;;;;;;;;;;4215670;28;20059;-59
2022/08/13 04:52:19;;;;;;;5.75;4.07;;;;;;;;;;4214815;28;20543;-59
2022/08/13 04:54:20;;;;;;;5.45;3.97;;;;;;;;;;4214936;28;20036;-59
2022/08/13 04:56:21;;;;;;;9.23;4.70;;;;;;;;;;4215772;28;20060;-59
2022/08/13 04:58:29;;;;;;;6.90;4.03;;;;;;;;;;4215443;28;20093;-59
2022/08/13 05:00:34;;;;;;;10.48;4.57;;;;;;;;;;4214614;28;20047;-59
2022/08/13 05:02:38;;;;;;;7.78;3.97;;;;;;;;;;4214020;28;20089;-59
2022/08/13 05:04:42;;;;;;;5.50;4.15;;;;;;;;;;4216134;28;20032;-59
2022/08/13 05:06:43;;;;;;;8.18;4.10;;;;;;;;;;4215391;28;20082;-59
2022/08/13 05:08:44;;;;;;;6.38;4.20;;;;;;;;;;4213606;28;20032;-59
2022/08/13 05:10:47;;;;;;;7.55;4.07;;;;;;;;;;4213565;28;20455;-59
2022/08/13 05:12:48;;;;;;;7.80;4.20;;;;;;;;;;4214420;28;20109;-59
2022/08/13 05:14:48;;;;;;;5.78;4.10;;;;;;;;;;4214415;28;20039;-59
2022/08/13 05:16:49;;;;;;;6.07;3.88;;;;;;;;;;4215480;28;20086;-59
2022/08/13 05:18:59;;;;;;;4.95;3.67;;;;;;;;;;4214740;28;20036;-59
2022/08/13 05:21:01;;;;;;;5.22;4.18;;;;;;;;;;4208590;28;20475;-59
2022/08/13 05:23:06;;;;;;;5.10;3.40;;;;;;;;;;4215128;28;20040;-59
2022/08/13 05:25:07;;;;;;;5.43;3.70;;;;;;;;;;4214166;28;20040;-59
2022/08/13 05:27:09;;;;;;;6.13;3.88;;;;;;;;;;4214909;28;20032;-59
2022/08/13 05:29:10;;;;;;;5.65;3.90;;;;;;;;;;4215154;28;20036;-59
2022/08/13 05:31:11;;;;;;;7.88;3.78;;;;;;;;;;4214788;28;20093;-59
2022/08/13 05:33:16;;;;;;;6.07;3.65;;;;;;;;;;4215115;28;20429;-59
2022/08/13 05:35:20;;;;;;;6.65;3.50;;;;;;;;;;4214263;28;20548;-59
2022/08/13 05:37:21;;;;;;;5.60;3.78;;;;;;;;;;4214752;28;20484;-59
2022/08/13 05:39:21;;;;;;;4.70;3.28;;;;;;;;;;4215039;28;20028;-59
2022/08/13 05:41:23;;;;;;;4.57;3.35;;;;;;;;;;4214754;28;20027;-61
2022/08/13 05:43:26;;;;;;;7.53;3.30;;;;;;;;;;4206514;28;20052;-60
2022/08/13 05:45:27;;;;;;;4.47;2.85;;;;;;;;;;4214589;28;20028;-61
2022/08/13 05:47:28;;;;;;;5.40;3.63;;;;;;;;;;4215105;28;20044;-59
2022/08/13 05:49:29;;;;;;;4.05;3.65;;;;;;;;;;4214354;28;20109;-60
2022/08/13 05:51:31;;;;;;;3.92;3.53;;;;;;;;;;4214719;28;20040;-61
2022/08/13 05:53:32;;;;;;;5.63;3.10;;;;;;;;;;4214343;28;20537;-60
2022/08/13 05:55:33;;;;;;;5.55;3.20;;;;;;;;;;4214728;28;20036;-60
2022/08/13 05:57:34;;;;;;;3.35;2.95;;;;;;;;;;4214725;28;20028;-60
2022/08/13 06:04:14;;;;;;;7.07;3.22;;;;;;;;;;4215154;28;20028;-60
2022/08/13 06:06:16;;;;;;;3.58;3.08;;;;;;;;;;4213353;28;20036;-60
2022/08/13 06:08:17;;;;;;;3.63;2.80;;;;;;;;;;4206204;28;20101;-60
2022/08/13 06:10:18;;;;;;;4.45;2.85;;;;;;;;;;4213942;28;20036;-60
2022/08/13 06:12:20;;;;;;;4.78;2.92;;;;;;;;;;4204573;28;20093;-60
2022/08/13 06:14:21;;;;;;;5.95;3.17;;;;;;;;;;4214120;28;20097;-60
2022/08/13 06:16:24;;;;;;;3.22;2.88;;;;;;;;;;4213894;28;20123;-60
2022/08/13 06:18:25;;;;;;;2.80;2.60;;;;;;;;;;4213784;28;20027;-60
2022/08/13 06:20:27;;;;;;;4.57;2.85;;;;;;;;;;4213748;28;20453;-60
2022/08/13 06:22:28;;;;;;;3.22;2.72;;;;;;;;;;4205324;28;20548;-60
2022/08/13 06:24:33;;;;;;;5.10;3.13;;;;;;;;;;4214584;28;20089;-60
2022/08/13 06:26:33;;;;;;;;;;;;;;;;;;4213671;28;20105;-61
2022/08/13 06:28:37;;;;;;;2.63;2.40;;;;;;;;;;4213670;28;20339;-60
2022/08/13 06:30:44;;;;;;;4.72;2.63;;;;;;;;;;4212911;28;20038;-60
2022/08/13 06:32:45;;;;;;;3.85;2.75;;;;;;;;;;4214534;28;20028;-61
2022/08/13 06:34:46;;;;;;;3.13;2.83;;;;;;;;;;4213016;28;20093;-60
2022/08/13 06:36:48;;;;;;;3.17;2.63;;;;;;;;;;4213894;28;20140;-60
2022/08/13 06:38:49;;;;;;;2.72;2.50;;;;;;;;;;4213804;28;20169;-60
2022/08/13 06:40:54;;;;;;;2.40;2.20;;;;;;;;;;4213466;28;20082;-60
2022/08/13 06:42:56;;;;;;;2.45;2.25;;;;;;;;;;4213913;28;20040;-60
2022/08/13 06:44:58;;;;;;;2.40;2.20;;;;;;;;;;4213749;28;20040;-60
2022/08/13 06:47:03;;;;;;;2.70;2.50;;;;;;;;;;4213619;28;20475;-61
2022/08/13 06:49:04;;;;;;;;;;;;;;;;;;4213808;28;20032;-59
2022/08/13 06:51:06;;;;;;;2.58;2.38;;;;;;;;;;4217520;28;19916;-60
2022/08/13 06:53:10;;;;;;;3.25;2.50;;;;;;;;;;4213903;28;20552;-60
2022/08/13 06:55:11;;;;;;;3.13;2.38;;;;;;;;;;4213553;28;20028;-60
2022/08/13 06:57:12;;;;;;;2.60;2.40;;;;;;;;;;4213112;28;20101;-60
2022/08/13 06:59:19;;;;;;;2.40;2.20;;;;;;;;;;4213628;28;20032;-60
2022/08/13 07:01:22;;;;;;;2.58;2.13;;;;;;;;;;4213272;28;20541;-60
2022/08/13 07:03:25;;;;;;;2.45;2.25;;;;;;;;;;4213284;28;20040;-61
2022/08/13 07:05:35;;;;;;;2.40;2.20;;;;;;;;;;4213823;28;20032;-60
2022/08/13 07:07:44;;;;;;;2.75;2.35;;;;;;;;;;4213108;28;20032;-60
2022/08/13 07:09:45;;;;;;;2.47;2.15;;;;;;;;;;4213113;28;20368;-60
2022/08/13 07:11:55;;;;;;;2.13;1.98;;;;;;;;;;4212895;28;20028;-60
2022/08/13 07:13:58;;;;;;;2.45;2.00;;;;;;;;;;4212506;28;20085;-61
2022/08/13 07:15:59;;;;;;;2.15;2.03;;;;;;;;;;4213382;28;20425;-60
2022/08/13 07:18:00;;;;;;;2.22;2.00;;;;;;;;;;4210072;28;20047;-60
2022/08/13 07:20:03;;;;;;;3.13;2.00;;;;;;;;;;4213192;28;20073;-60
2022/08/13 07:22:04;;;;;;;2.40;2.20;;;;;;;;;;4213188;28;20089;-60
2022/08/13 07:24:06;;;;;;;2.00;1.90;;;;;;;;;;4213249;28;20035;-60
2022/08/13 07:26:08;;;;;;;1.83;1.73;;;;;;;;;;4213601;28;20433;-60
2022/08/13 07:28:09;;;;;;;2.47;2.10;;;;;;;;;;4212093;28;20028;-60
2022/08/13 07:30:14;;;;;;;2.13;1.95;;;;;;;;;;4212815;28;20387;-60
2022/08/13 07:32:16;;;;;;;1.90;1.80;;;;;;;;;;4213321;28;20090;-60
2022/08/13 07:34:17;;;;;;;2.78;2.00;;;;;;;;;;4212602;28;20104;-60
2022/08/13 07:36:19;;;;;;;2.40;2.15;;;;;;;;;;4210852;28;20017;-60
2022/08/13 07:38:20;;;;;;;1.95;1.85;;;;;;;;;;4209479;28;20085;-60
2022/08/13 07:40:21;;;;;;;2.70;1.90;;;;;;;;;;4212705;28;20036;-60
2022/08/13 07:42:22;;;;;;;2.00;1.90;;;;;;;;;;4215622;28;20373;-60
2022/08/13 07:44:24;;;;;;;2.22;2.13;;;;;;;;;;4216069;28;20040;-60
2022/08/13 07:46:25;;;;;;;2.00;1.90;;;;;;;;;;4216571;28;20479;-60
2022/08/13 07:48:26;;;;;;;1.85;1.75;;;;;;;;;;4212596;28;20048;-60
2022/08/13 07:50:27;;;;;;;2.55;2.35;;;;;;;;;;4214964;28;20036;-60
2022/08/13 07:52:29;;;;;;;1.85;1.75;;;;;;;;;;4216352;28;20089;-60
2022/08/13 07:54:31;;;;;;;2.00;1.83;;;;;;;;;;4213319;28;20040;-60
2022/08/13 07:56:32;;;;;;;2.17;1.80;;;;;;;;;;4216334;28;20032;-60
2022/08/13 07:58:34;;;;;;;1.75;1.65;;;;;;;;;;4215085;28;21049;-60
2022/08/13 08:00:35;;;;;;;1.95;1.73;;;;;;;;;;4215837;28;20108;-59
2022/08/13 08:02:37;;;;;;;1.73;1.63;;;;;;;;;;4214853;28;20427;-59
2022/08/13 08:04:38;;;;;;;2.30;1.80;;;;;;;;;;4216759;28;20058;-60
2022/08/13 08:06:43;;;;;;;1.95;1.80;;;;;;;;;;4215585;28;20501;-60
2022/08/13 08:08:47;;;;;;;1.92;1.67;;;;;;;;;;4216334;28;20112;-59
2022/08/13 08:10:48;;;;;;;2.10;1.90;;;;;;;;;;4212735;28;20040;-59
2022/08/13 08:12:49;;;;;;;1.85;1.67;;;;;;;;;;4215265;28;20536;-60
2022/08/13 08:14:53;;;;;;;3.05;1.67;;;;;;;;;;4216481;28;20036;-60
2022/08/13 08:16:54;;;;;;;1.80;1.70;;;;;;;;;;4215457;28;20035;-59
2022/08/13 08:18:55;;;;;;;2.00;1.90;;;;;;;;;;4216722;28;20036;-59
2022/08/13 08:21:04;;;;;;;1.90;1.80;;;;;;;;;;4214423;28;20032;-60
2022/08/13 08:23:05;;;;;;;1.83;1.73;;;;;;;;;;4215446;28;20032;-60
2022/08/13 08:25:10;;;;;;;1.92;1.73;;;;;;;;;;4215968;28;20032;-60
2022/08/13 08:27:11;;;;;;;;;;;;;;;;;;4215156;28;20097;-59
2022/08/13 08:29:16;;;;;;;1.80;1.70;;;;;;;;;;4216547;28;19975;-59
2022/08/13 08:31:16;;;;;;;1.85;1.75;;;;;;;;;;4215211;28;20032;-60
2022/08/13 08:33:25;;;;;;;1.98;1.63;;;;;;;;;;4215623;28;20575;-60
2022/08/13 08:35:25;;;;;;;1.80;1.70;;;;;;;;;;4216169;28;20024;-59
2022/08/13 08:44:32;;;;;;;2.55;1.75;;;;;;;;;;4209027;28;20467;-60
2022/08/13 08:46:34;;;;;;;1.80;1.70;;;;;;;;;;4215321;28;20032;-59
2022/08/13 08:48:36;;;;;;;1.73;1.63;;;;;;;;;;4214372;28;20036;-60
2022/08/13 08:50:37;;;;;;;1.60;1.50;;;;;;;;;;4211367;28;20047;-60
2022/08/13 08:55:01;;;;;;;2.55;1.63;;;;;;;;;;4215237;28;20031;-60
2022/08/13 08:57:03;;;;;;;;;;;;;;;;;;4216133;28;20148;-60
2022/08/13 08:59:04;;;;;;;1.98;1.70;;;;;;;;;;4215171;28;20355;-60
2022/08/13 09:01:05;;;;;;;1.67;1.50;;;;;;;;;;4215361;28;20047;-60
2022/08/13 09:03:07;;;;;;;1.63;1.52;;;;;;;;;;4215366;28;20089;-60
2022/08/13 09:05:12;;;;;;;1.70;1.60;;;;;;;;;;4214622;28;20085;-59
2022/08/13 09:07:13;;;;;;;2.38;1.73;;;;;;;;;;4212042;28;20069;-60
2022/08/13 09:09:15;;;;;;;2.13;1.75;;;;;;;;;;4216200;28;20097;-59
2022/08/13 09:11:19;;;;;;;1.70;1.60;;;;;;;;;;4215086;28;20085;-60
2022/08/13 09:13:21;;;;;;;1.98;1.88;;;;;;;;;;4209287;28;20097;-60
2022/08/13 09:15:23;;;;;;;1.50;1.40;;;;;;;;;;4201833;28;20120;-60
2022/08/13 09:17:25;;;;;;;1.50;1.40;;;;;;;;;;4214774;28;20449;-60
2022/08/13 09:19:27;;;;;;;1.70;1.60;;;;;;;;;;4214760;28;20047;-60
2022/08/13 09:21:28;;;;;;;1.58;1.50;;;;;;;;;;4214378;28;20109;-59
2022/08/13 09:23:34;;;;;;;1.67;1.58;;;;;;;;;;4215610;28;20407;-60
2022/08/13 09:25:35;;;;;;;3.10;1.67;;;;;;;;;;4214876;28;20082;-60
2022/08/13 09:27:36;;;;;;;1.67;1.52;;;;;;;;;;4215009;28;20429;-60
2022/08/13 09:29:37;;;;;;;1.85;1.70;;;;;;;;;;4214887;28;20032;-59
2022/08/13 09:31:40;;;;;;;1.65;1.55;;;;;;;;;;4211085;28;20551;-60
2022/08/13 09:33:41;;;;;;;1.90;1.33;;;;;;;;;;4214737;28;20081;-60
2022/08/13 09:35:42;;;;;;;1.90;1.75;;;;;;;;;;4214667;28;20411;-60
2022/08/13 09:37:44;;;;;;;1.65;1.50;;;;;;;;;;4214386;28;20024;-60
2022/08/13 09:39:58;;;;;;;1.52;1.30;;;;;;;;;;4214673;28;20040;-59
2022/08/13 09:42:00;;;;;;;1.98;1.60;;;;;;;;;;4214792;28;20101;-59
2022/08/13 09:44:00;;;;;;;1.70;1.60;;;;;;;;;;4214527;28;20572;-59
2022/08/13 09:46:04;;;;;;;1.60;1.50;;;;;;;;;;4213712;28;20052;-60
2022/08/13 09:48:07;;;;;;;1.67;1.58;;;;;;;;;;4213235;28;20036;-60
2022/08/13 09:50:09;;;;;;;1.63;1.50;;;;;;;;;;4214134;28;20032;-60
2022/08/13 09:52:10;;;;;;;1.52;1.42;;;;;;;;;;4203035;28;20456;-60
2022/08/13 09:54:11;;;;;;;1.42;1.33;;;;;;;;;;4199349;28;20086;-60
2022/08/13 09:56:17;;;;;;;1.40;1.30;;;;;;;;;;4213616;28;20040;-60
2022/08/13 09:58:18;;;;;;;2.22;1.35;;;;;;;;;;4211022;28;20480;-59
2022/08/13 10:00:20;;;;;;;1.50;1.40;;;;;;;;;;4213703;28;20055;-60
2022/08/13 10:02:21;;;;;;;1.30;1.20;;;;;;;;;;4214211;28;20027;-60
2022/08/13 10:04:22;;;;;;;1.55;1.40;;;;;;;;;;4214288;28;20123;-60
2022/08/13 10:06:28;;;;;;;1.38;1.30;;;;;;;;;;4213827;28;20035;-60
2022/08/13 10:08:29;;;;;;;1.50;1.40;;;;;;;;;;4212688;28;20108;-60
2022/08/13 10:10:30;;;;;;;1.30;1.20;;;;;;;;;;4213108;28;20463;-60
2022/08/13 10:12:33;;;;;;;1.52;1.42;;;;;;;;;;4208638;28;20101;-60
2022/08/13 10:14:34;;;;;;;1.60;1.50;;;;;;;;;;4208578;28;20495;-60
2022/08/13 10:16:35;;;;;;;1.60;1.50;;;;;;;;;;4213039;28;20035;-59
2022/08/13 10:18:36;;;;;;;1.65;1.55;;;;;;;;;;4214003;28;20392;-60
2022/08/13 10:20:37;;;;;;;1.50;1.40;;;;;;;;;;4212236;28;20040;-60
2022/08/13 10:22:38;;;;;;;1.65;1.55;;;;;;;;;;4212235;28;20109;-60
2022/08/13 10:24:39;;;;;;;1.45;1.35;;;;;;;;;;4210476;28;20101;-60
2022/08/13 10:26:42;;;;;;;1.38;1.30;;;;;;;;;;4209974;28;20032;-60
2022/08/13 10:28:43;;;;;;;1.60;1.50;;;;;;;;;;4212223;28;20093;-59
2022/08/13 10:30:46;;;;;;;1.38;1.27;;;;;;;;;;4213813;28;20024;-60
2022/08/13 10:32:46;;;;;;;2.10;1.30;;;;;;;;;;4213565;28;20044;-60
2022/08/13 10:34:47;;;;;;;1.80;1.70;;;;;;;;;;4214203;28;20441;-59
2022/08/13 10:36:51;;;;;;;1.23;1.13;;;;;;;;;;4213563;28;20036;-59
2022/08/13 10:38:52;;;;;;;2.03;1.80;;;;;;;;;;4213181;28;20028;-59
2022/08/13 10:40:58;;;;;;;1.77;1.45;;;;;;;;;;4214057;28;20075;-60
2022/08/13 10:42:59;;;;;;;1.27;1.20;;;;;;;;;;4213994;28;20457;-59
2022/08/13 10:45:00;;;;;;;3.00;1.40;;;;;;;;;;4213375;28;20056;-59
2022/08/13 10:47:01;;;;;;;1.40;1.30;;;;;;;;;;4212331;28;20032;-60
2022/08/13 10:49:02;;;;;;;2.08;1.25;;;;;;;;;;4213416;28;20039;-60
2022/08/13 10:51:03;;;;;;;1.83;1.40;;;;;;;;;;4211741;28;20434;-59
2022/08/13 10:53:04;;;;;;;1.33;1.27;;;;;;;;;;4213397;28;20036;-59
2022/08/13 10:55:08;;;;;;;1.40;1.30;;;;;;;;;;4213364;28;20073;-59
2022/08/13 10:57:08;;;;;;;1.50;1.40;;;;;;;;;;4210066;28;20048;-60
2022/08/13 10:59:09;;;;;;;1.10;1.10;;;;;;;;;;4213496;28;20036;-60
2022/08/13 11:01:11;;;;;;;1.95;1.33;;;;;;;;;;4213803;28;20072;-60
2022/08/13 11:03:16;;;;;;;1.08;1.08;;;;;;;;;;4213129;28;20085;-60
2022/08/13 11:05:17;;;;;;;;;;;;;;;;;;4213671;28;20101;-60
2022/08/13 11:07:18;;;;;;;1.30;1.20;;;;;;;;;;4213196;28;19908;-59
2022/08/13 11:09:19;;;;;;;1.33;1.23;;;;;;;;;;4202107;28;20062;-59
2022/08/13 11:11:21;;;;;;;1.08;1.08;;;;;;;;;;4202367;28;20495;-59
2022/08/13 11:13:23;;;;;;;1.00;1.00;;;;;;;;;;4206924;28;20085;-59
2022/08/13 11:15:26;;;;;;;1.27;1.17;;;;;;;;;;4213248;28;20044;-59
2022/08/13 11:17:27;;;;;;;1.52;1.42;;;;;;;;;;4218990;28;20089;-59
2022/08/13 11:19:29;;;;;;;1.20;1.10;;;;;;;;;;4211804;28;20043;-59
2022/08/13 11:21:30;;;;;;;1.10;1.10;;;;;;;;;;4218739;28;20043;-59
2022/08/13 11:23:31;;;;;;;1.15;1.00;;;;;;;;;;4218389;28;20038;-59
2022/08/13 11:25:31;;;;;;;1.92;1.20;;;;;;;;;;4218683;28;20032;-60
2022/08/13 11:27:35;;;;;;;1.38;1.27;;;;;;;;;;4217001;28;20119;-59
2022/08/13 11:29:36;;;;;;;1.13;1.03;;;;;;;;;;4218556;28;20089;-59
2022/08/13 11:31:37;;;;;;;0.80;0.80;;;;;;;;;;4219346;28;20249;-59
2022/08/13 11:33:38;;;;;;;1.30;1.20;;;;;;;;;;4216772;28;20047;-59
2022/08/13 11:35:40;;;;;;;1.17;1.08;;;;;;;;;;4218923;28;20040;-59
2022/08/13 11:37:40;;;;;;;1.40;1.30;;;;;;;;;;4213304;28;20044;-59
2022/08/13 11:39:41;;;;;;;1.88;1.27;;;;;;;;;;4218463;28;20559;-59
2022/08/13 11:41:42;;;;;;;1.50;1.23;;;;;;;;;;4219455;28;20044;-59
2022/08/13 11:43:43;;;;;;;2.70;1.25;;;;;;;;;;4218880;28;20048;-58
2022/08/13 11:45:45;;;;;;;1.00;1.00;;;;;;;;;;4218162;28;20043;-59
2022/08/13 11:47:46;;;;;;;1.20;1.10;;;;;;;;;;4219281;28;20105;-59
2022/08/13 11:49:47;;;;;;;1.02;1.02;;;;;;;;;;4218667;28;20460;-59
2022/08/13 11:51:48;;;;;;;1.00;1.00;;;;;;;;;;4218719;28;20111;-60
2022/08/13 11:53:49;;;;;;;1.25;1.15;;;;;;;;;;4217183;28;20031;-59
2022/08/13 11:55:50;;;;;;;1.20;1.15;;;;;;;;;;4218969;28;20103;-59
2022/08/13 11:58:05;;;;;;;1.20;1.10;;;;;;;;;;4218408;28;20035;-59
2022/08/13 12:00:06;;;;;;;1.05;1.05;;;;;;;;;;4216836;28;20040;-58
2022/08/13 12:02:07;;;;;;;1.17;1.10;;;;;;;;;;4218266;28;20028;-59
2022/08/13 12:04:10;;;;;;;1.30;1.20;;;;;;;;;;4217489;28;20085;-59
2022/08/13 12:06:11;;;;;;;0.90;0.90;;;;;;;;;;4217480;28;20040;-59
2022/08/13 12:08:13;;;;;;;1.20;1.10;;;;;;;;;;4217433;28;20566;-59
2022/08/13 12:10:13;;;;;;;1.27;1.17;;;;;;;;;;4217641;28;20101;-59
2022/08/13 12:12:17;;;;;;;1.10;1.10;;;;;;;;;;4217463;28;20048;-59
2022/08/13 12:14:18;;;;;;;1.00;1.00;;;;;;;;;;4216794;28;20089;-59
2022/08/13 12:16:19;;;;;;;0.95;0.95;;;;;;;;;;4218398;28;20048;-59
2022/08/13 12:18:23;;;;;;;1.17;1.10;;;;;;;;;;4217837;28;20533;-59
2022/08/13 12:20:24;;;;;;;1.25;1.13;;;;;;;;;;4217551;28;20089;-59
2022/08/13 12:22:25;;;;;;;0.93;0.93;;;;;;;;;;4218638;28;20028;-60
2022/08/13 12:24:25;;;;;;;1.10;1.00;;;;;;;;;;4217855;28;20052;-59
2022/08/13 12:26:26;;;;;;;1.35;1.20;;;;;;;;;;4218713;28;20506;-59
2022/08/13 12:28:28;;;;;;;1.40;1.10;;;;;;;;;;4214199;28;20024;-58